createdAt,value
2018-06-07T00:01:44.024Z,13.13
2018-06-07T00:04:17.510Z,13.00
2018-06-07T00:06:47.820Z,13.20
2018-06-07T00:12:04.778Z,14.23
2018-06-07T00:14:39.304Z,12.87
2018-06-07T00:17:08.705Z,13.27
2018-06-07T00:19:38.542Z,13.33
2018-06-07T00:22:12.324Z,12.50
2018-06-07T00:27:19.794Z,12.20
2018-06-07T00:29:49.258Z,13.07
2018-06-07T00:32:23.730Z,11.70
2018-06-07T00:34:54.812Z,12.20
2018-06-07T00:37:34.799Z,12.37
2018-06-07T00:40:05.813Z,12.90
2018-06-07T00:42:36.176Z,12.97
2018-06-07T00:45:05.847Z,13.47
2018-06-07T00:47:36.006Z,12.20
2018-06-07T00:50:05.428Z,12.97
2018-06-07T00:52:40.905Z,13.83
2018-06-07T00:55:10.386Z,12.70
2018-06-07T00:57:39.778Z,12.97
2018-06-07T01:00:10.103Z,12.93
2018-06-07T01:02:40.120Z,12.70
2018-06-07T01:05:11.292Z,12.50
2018-06-07T01:07:43.273Z,12.77
2018-06-07T01:10:13.610Z,13.57
2018-06-07T01:12:43.850Z,13.37
2018-06-07T01:15:13.177Z,14.13
2018-06-07T01:17:51.241Z,13.50
2018-06-07T01:20:20.740Z,16.27
2018-06-07T01:23:04.191Z,14.00
2018-06-07T01:25:33.466Z,13.33
2018-06-07T01:28:02.745Z,14.60
2018-06-07T01:30:37.077Z,14.57
2018-06-07T01:36:12.286Z,13.13
2018-06-07T01:39:25.974Z,14.47
2018-06-07T01:41:56.820Z,13.13
2018-06-07T01:44:29.940Z,14.93
2018-06-07T01:46:59.673Z,13.57
2018-06-07T01:49:29.262Z,20.70
2018-06-07T01:51:58.645Z,13.53
2018-06-07T01:54:31.210Z,13.20
2018-06-07T01:57:03.322Z,15.50
2018-06-07T01:59:32.951Z,14.40
2018-06-07T02:02:02.485Z,12.70
2018-06-07T02:07:27.843Z,12.77
2018-06-07T02:09:57.335Z,12.47
2018-06-07T02:12:27.697Z,15.70
2018-06-07T02:15:02.182Z,15.30
2018-06-07T02:17:53.598Z,12.40
2018-06-07T02:20:23.645Z,13.43
2018-06-07T02:22:53.227Z,14.37
2018-06-07T02:25:23.977Z,13.23
2018-06-07T02:27:58.577Z,18.33
2018-06-07T02:30:31.931Z,14.07
2018-06-07T02:33:01.405Z,15.00
2018-06-07T02:35:30.872Z,14.13
2018-06-07T02:38:01.050Z,15.37
2018-06-07T02:40:30.223Z,13.77
2018-06-07T02:43:03.320Z,13.80
2018-06-07T02:45:33.248Z,13.97
2018-06-07T02:51:10.543Z,14.10
2018-06-07T02:53:39.789Z,14.33
2018-06-07T02:56:09.216Z,15.20
2018-06-07T02:58:44.973Z,14.33
2018-06-07T03:01:15.873Z,15.40
2018-06-07T03:03:45.163Z,13.93
2018-06-07T03:06:14.527Z,15.63
2018-06-07T03:08:44.831Z,14.03
2018-06-07T03:11:16.927Z,14.37
2018-06-07T03:13:50.285Z,17.83
2018-06-07T03:16:23.255Z,15.00
2018-06-07T03:18:52.810Z,16.00
2018-06-07T03:21:23.895Z,14.93
2018-06-07T03:23:53.215Z,17.33
2018-06-07T03:26:23.232Z,15.27
2018-06-07T03:28:53.634Z,15.93
2018-06-07T03:31:23.467Z,15.90
2018-06-07T03:33:52.866Z,16.83
2018-06-07T03:36:23.272Z,15.97
2018-06-07T03:38:52.796Z,17.33
2018-06-07T03:41:22.915Z,16.63
2018-06-07T03:43:56.436Z,16.17
2018-06-07T03:46:40.063Z,18.23
2018-06-07T03:49:12.796Z,16.40
2018-06-07T03:51:43.776Z,15.37
2018-06-07T03:54:17.063Z,15.83
2018-06-07T03:56:46.800Z,15.17
2018-06-07T03:59:20.645Z,17.00
2018-06-07T04:01:50.709Z,19.10
2018-06-07T04:04:25.660Z,15.97
2018-06-07T04:06:55.131Z,16.17
2018-06-07T04:09:28.591Z,14.63
2018-06-07T04:11:58.621Z,15.43
2018-06-07T04:14:28.259Z,15.93
2018-06-07T04:16:57.842Z,14.50
2018-06-07T04:19:27.146Z,15.43
2018-06-07T04:21:56.833Z,13.63
2018-06-07T04:24:38.575Z,16.37
2018-06-07T04:27:08.958Z,15.67
2018-06-07T04:32:19.877Z,14.93
2018-06-07T04:34:50.308Z,15.37
2018-06-07T04:37:19.906Z,15.47
2018-06-07T04:39:50.573Z,16.23
2018-06-07T04:42:20.148Z,14.77
2018-06-07T04:44:49.778Z,16.43
2018-06-07T04:47:20.815Z,15.93
2018-06-07T04:49:52.192Z,14.27
2018-06-07T04:52:21.744Z,16.20
2018-06-07T04:54:51.380Z,14.77
2018-06-07T04:57:21.670Z,19.10
2018-06-07T04:59:51.241Z,15.00
2018-06-07T05:02:20.774Z,12.23
2018-06-07T05:04:50.491Z,13.80
2018-06-07T05:07:19.936Z,13.30
2018-06-07T05:09:50.256Z,12.50
2018-06-07T05:12:20.911Z,12.10
2018-06-07T05:14:50.246Z,17.20
2018-06-07T05:17:46.309Z,10.70
2018-06-07T05:20:44.639Z,11.60
2018-06-07T05:23:15.715Z,11.87
2018-06-07T05:25:45.168Z,11.73
2018-06-07T05:28:15.288Z,10.90
2018-06-07T05:30:45.262Z,11.20
2018-06-07T05:36:37.800Z,8.50
2018-06-07T05:42:18.503Z,8.50
2018-06-07T05:45:14.864Z,7.10
2018-06-07T05:47:44.958Z,6.70
2018-06-07T05:50:14.614Z,7.93
2018-06-07T05:56:29.939Z,6.40
2018-06-07T05:59:00.272Z,7.00
2018-06-07T06:11:37.169Z,9.80
2018-06-07T06:33:51.364Z,5.60
2018-06-07T06:40:10.581Z,6.20
2018-06-07T06:43:09.979Z,5.93
2018-06-07T06:49:16.514Z,5.00
2018-06-07T06:51:47.066Z,6.37
2018-06-07T06:54:16.782Z,5.33
2018-06-07T06:57:04.001Z,5.87
2018-06-07T06:59:34.007Z,6.20
2018-06-07T07:15:33.920Z,8.63
2018-06-07T07:21:55.206Z,4.50
2018-06-07T07:24:51.626Z,5.80
2018-06-07T07:31:09.440Z,4.73
2018-06-07T07:50:48.264Z,6.50
2018-06-07T08:07:04.435Z,5.33
2018-06-07T08:16:54.568Z,11.13
2018-06-07T08:32:49.729Z,6.03
2018-06-07T08:36:03.040Z,6.23
2018-06-07T08:55:18.938Z,5.60
2018-06-07T09:20:48.631Z,6.20
2018-06-07T09:33:58.999Z,6.67
2018-06-07T09:49:48.651Z,6.30
2018-06-07T09:56:06.110Z,6.70
2018-06-07T10:09:15.261Z,7.03
2018-06-07T10:18:47.217Z,6.57
2018-06-07T10:48:18.224Z,6.97
2018-06-07T10:50:48.228Z,7.43
2018-06-07T10:53:19.115Z,8.33
2018-06-07T10:58:58.681Z,7.33
2018-06-07T11:01:28.473Z,7.97
2018-06-07T11:03:59.201Z,7.70
2018-06-07T11:06:31.631Z,7.73
2018-06-07T11:09:01.776Z,7.10
2018-06-07T11:11:39.580Z,13.43
2018-06-07T11:14:22.319Z,7.67
2018-06-07T11:16:54.600Z,7.63
2018-06-07T11:19:24.201Z,9.63
2018-06-07T11:22:23.975Z,6.30
2018-06-07T11:24:55.713Z,7.90
2018-06-07T11:27:46.514Z,7.73
2018-06-07T11:30:17.034Z,6.70
2018-06-07T11:32:46.657Z,7.63
2018-06-07T11:35:17.439Z,7.53
2018-06-07T11:38:29.280Z,7.73
2018-06-07T11:41:01.696Z,7.43
2018-06-07T11:53:27.475Z,6.70
2018-06-07T11:56:11.045Z,6.60
2018-06-07T12:06:01.382Z,6.57
2018-06-07T12:11:40.097Z,7.73
2018-06-07T12:14:09.610Z,6.63
2018-06-07T12:20:17.163Z,7.27
2018-06-07T12:23:13.078Z,8.07
2018-06-07T12:46:18.360Z,11.63
2018-06-07T12:52:13.620Z,9.70
2018-06-07T12:55:02.785Z,9.60
2018-06-07T12:57:36.090Z,9.50
2018-06-07T13:03:28.188Z,8.33
2018-06-07T13:13:11.617Z,8.00
2018-06-07T13:15:45.646Z,6.90
2018-06-07T13:21:38.301Z,7.23
2018-06-07T13:24:46.816Z,8.27
2018-06-07T13:27:18.608Z,19.70
2018-06-07T13:33:51.945Z,6.20
2018-06-07T13:46:55.477Z,7.07
2018-06-07T13:59:53.076Z,9.17
2018-06-07T14:03:02.549Z,8.13
2018-06-07T14:21:19.629Z,7.20
2018-06-07T14:24:03.211Z,7.10
2018-06-07T14:30:19.779Z,7.40
2018-06-07T14:36:38.978Z,7.10
2018-06-07T14:39:09.479Z,7.57
2018-06-07T14:41:41.853Z,6.03
2018-06-07T14:54:40.835Z,6.93
2018-06-07T14:57:36.444Z,14.90
2018-06-07T15:00:12.815Z,22.57
2018-06-07T15:02:46.481Z,6.37
2018-06-07T15:09:15.901Z,8.60
2018-06-07T15:12:02.236Z,6.80
2018-06-07T15:38:25.438Z,7.60
2018-06-07T15:47:36.473Z,8.03
2018-06-07T15:50:35.693Z,21.37
2018-06-07T15:53:35.102Z,14.03
2018-06-07T15:59:39.623Z,18.70
2018-06-07T16:05:37.392Z,13.17
2018-06-07T16:11:29.339Z,29.80
2018-06-07T16:14:27.706Z,33.90
2018-06-07T16:17:12.631Z,31.00
2018-06-07T16:19:43.094Z,40.93
2018-06-07T16:22:46.803Z,41.33
2018-06-07T16:25:16.484Z,23.00
2018-06-07T16:27:47.805Z,24.33
2018-06-07T16:30:18.925Z,24.43
2018-06-07T16:32:48.578Z,36.00
2018-06-07T16:35:31.279Z,21.67
2018-06-07T16:38:10.762Z,18.87
2018-06-07T16:40:40.363Z,18.23
2018-06-07T16:45:44.833Z,19.50
2018-06-07T16:48:15.381Z,17.63
2018-06-07T16:50:45.245Z,18.07
2018-06-07T16:53:18.033Z,22.10
2018-06-07T16:55:49.003Z,16.00
2018-06-07T16:58:41.768Z,21.97
2018-06-07T17:01:24.809Z,21.20
2018-06-07T17:03:54.469Z,20.67
2018-06-07T17:06:28.754Z,19.90
2018-06-07T17:08:59.770Z,31.00
2018-06-07T17:14:24.627Z,26.50
2018-06-07T17:17:00.828Z,18.27
2018-06-07T17:19:36.647Z,18.23
2018-06-07T17:22:09.192Z,23.73
2018-06-07T17:24:43.139Z,28.70
2018-06-07T17:27:28.539Z,21.50
2018-06-07T17:30:09.373Z,24.00
2018-06-07T17:32:52.267Z,27.37
2018-06-07T17:35:29.825Z,27.67
2018-06-07T17:38:12.275Z,24.43
2018-06-07T17:40:45.687Z,26.43
2018-06-07T17:43:44.700Z,29.03
2018-06-07T17:46:55.164Z,26.60
2018-06-07T17:50:03.232Z,47.30
2018-06-07T17:59:45.227Z,43.40
2018-06-07T18:02:19.786Z,36.43
2018-06-07T18:04:54.262Z,32.67
2018-06-07T18:07:42.327Z,42.07
2018-06-07T18:12:53.774Z,31.97
2018-06-07T18:15:37.798Z,32.93
2018-06-07T18:18:13.749Z,32.23
2018-06-07T18:20:44.586Z,35.63
2018-06-07T18:23:16.647Z,26.30
2018-06-07T18:25:47.213Z,29.50
2018-06-07T18:28:18.723Z,35.87
2018-06-07T18:30:50.214Z,34.40
2018-06-07T18:33:25.085Z,39.97
2018-06-07T18:36:08.093Z,38.73
2018-06-07T18:38:38.211Z,31.97
2018-06-07T18:41:09.656Z,29.07
2018-06-07T18:43:41.841Z,27.77
2018-06-07T18:46:12.303Z,30.97
2018-06-07T18:48:43.629Z,25.00
2018-06-07T18:51:17.381Z,28.23
2018-06-07T18:53:53.196Z,29.83
2018-06-07T18:56:30.636Z,26.07
2018-06-07T18:59:03.751Z,39.77
2018-06-07T19:01:39.516Z,27.57
2018-06-07T19:04:15.483Z,33.97
2018-06-07T19:06:46.596Z,27.73
2018-06-07T19:09:22.227Z,29.77
2018-06-07T19:12:07.440Z,30.00
2018-06-07T19:15:14.876Z,21.37
2018-06-07T19:17:49.726Z,24.67
2018-06-07T19:20:31.014Z,20.37
2018-06-07T19:25:53.835Z,23.60
2018-06-07T19:28:25.158Z,22.13
2018-06-07T19:33:40.321Z,30.67
2018-06-07T19:36:14.707Z,26.80
2018-06-07T19:38:51.645Z,45.97
2018-06-07T19:41:27.213Z,26.73
2018-06-07T19:44:13.085Z,20.40
2018-06-07T19:46:43.811Z,32.30
2018-06-07T19:49:19.284Z,29.83
2018-06-07T19:51:49.898Z,34.00
2018-06-07T19:54:34.242Z,34.33
2018-06-07T19:57:24.422Z,33.93
2018-06-07T20:00:11.600Z,32.90
2018-06-07T20:02:53.514Z,33.13
2018-06-07T20:05:23.054Z,37.20
2018-06-07T20:07:52.697Z,35.27
2018-06-07T20:10:27.102Z,41.33
2018-06-07T20:13:10.240Z,45.60
2018-06-07T20:18:20.239Z,38.50
2018-06-07T20:20:51.113Z,43.60
2018-06-07T20:23:30.155Z,43.93
2018-06-07T20:26:06.439Z,41.93
2018-06-07T20:28:44.774Z,46.70
2018-06-07T20:31:17.445Z,48.13
2018-06-07T20:33:50.360Z,38.60
2018-06-07T20:36:22.402Z,45.47
2018-06-07T20:39:04.725Z,43.63
2018-06-07T20:44:13.371Z,46.83
2018-06-07T20:46:56.339Z,50.97
2018-06-07T20:52:42.213Z,54.27
2018-06-07T20:55:50.413Z,49.97
2018-06-07T21:08:48.923Z,55.43
2018-06-07T21:11:58.120Z,50.80
2018-06-07T21:37:42.212Z,38.67
2018-06-07T22:10:18.708Z,45.93
2018-06-07T22:16:09.883Z,36.60
2018-06-07T22:49:02.361Z,31.10
2018-06-07T23:14:49.609Z,40.50
2018-06-07T23:57:30.890Z,35.00
